Time;durP1;ratioP1;P1;durP2;ratioP2;P2;SDS_P1;SDS_P2;PMS_P1;PMS_P2;Temp;Humidity;BMP_temperature;BMP_pressure;BME280_temperature;BME280_humidity;BME280_pressure;Samples;Min_cycle;Max_cycle;Signal;HPM_P1;HPM_P2
2021/07/09 00:01:55;;;;;;;0.98;0.90;;;20.30;99.90;;;;;;5054315;28;20356;-74
2021/07/09 00:04:23;;;;;;;0.80;0.80;;;20.30;99.90;;;;;;5050429;28;20641;-74
2021/07/09 00:06:51;;;;;;;1.27;1.17;;;20.40;99.90;;;;;;5054532;28;20222;-74
2021/07/09 00:09:19;;;;;;;1.90;0.90;;;20.30;99.90;;;;;;5055128;28;20271;-74
2021/07/09 00:11:49;;;;;;;1.75;1.08;;;20.30;99.90;;;;;;5061300;28;20230;-74
2021/07/09 00:14:17;;;;;;;1.23;0.93;;;20.20;99.90;;;;;;5052335;28;20712;-74
2021/07/09 00:16:45;;;;;;;2.08;0.90;;;20.20;99.90;;;;;;5049309;28;20640;-74
2021/07/09 00:19:14;;;;;;;0.93;0.93;;;20.20;99.90;;;;;;5053914;28;20279;-73
2021/07/09 00:21:41;;;;;;;1.02;1.00;;;20.20;99.90;;;;;;5042025;28;20223;-74
2021/07/09 00:24:09;;;;;;;1.30;0.95;;;20.20;99.90;;;;;;5053639;28;20260;-74
2021/07/09 00:26:37;;;;;;;0.93;0.90;;;20.20;99.90;;;;;;5050199;28;20230;-74
2021/07/09 00:29:04;;;;;;;2.50;0.93;;;20.10;99.90;;;;;;5051958;28;20226;-74
2021/07/09 00:31:34;;;;;;;0.80;0.80;;;20.10;99.90;;;;;;5048972;28;20273;-74
2021/07/09 00:34:03;;;;;;;1.95;1.10;;;20.00;99.90;;;;;;5049869;28;20583;-74
2021/07/09 00:36:31;;;;;;;0.93;0.93;;;20.10;99.90;;;;;;5048025;28;20226;-74
2021/07/09 00:38:59;;;;;;;0.93;0.80;;;20.10;99.90;;;;;;5054669;28;20596;-74
2021/07/09 00:41:26;;;;;;;2.58;1.08;;;20.00;99.90;;;;;;5050669;28;21896;-74
2021/07/09 00:43:53;;;;;;;0.98;0.85;;;20.00;99.90;;;;;;5046995;28;20235;-74
2021/07/09 00:46:30;;;;;;;1.00;0.90;;;20.00;99.90;;;;;;5046797;28;20703;-74
2021/07/09 00:48:57;;;;;;;0.70;0.70;;;20.00;99.90;;;;;;5044735;28;20848;-74
2021/07/09 00:51:24;;;;;;;1.35;0.90;;;20.00;99.90;;;;;;5045020;28;20284;-74
2021/07/09 00:53:52;;;;;;;1.45;1.00;;;19.90;99.90;;;;;;5036413;28;20224;-73
2021/07/09 00:56:21;;;;;;;1.10;0.85;;;19.90;99.90;;;;;;5028998;28;20652;-74
2021/07/09 00:58:49;;;;;;;2.17;1.00;;;19.90;99.90;;;;;;5023994;28;20225;-74
2021/07/09 01:01:16;;;;;;;1.10;1.00;;;19.90;99.90;;;;;;5050462;28;20214;-74
2021/07/09 01:03:43;;;;;;;0.90;0.90;;;19.80;99.90;;;;;;5035634;28;20360;-72
2021/07/09 01:06:12;;;;;;;0.70;0.70;;;19.80;99.90;;;;;;5030679;28;20226;-74
2021/07/09 01:08:39;;;;;;;2.30;0.88;;;19.80;99.90;;;;;;5028155;28;20228;-74
2021/07/09 01:11:08;;;;;;;1.15;0.82;;;19.80;99.90;;;;;;5026129;28;20223;-74
2021/07/09 01:13:35;;;;;;;0.95;0.85;;;19.80;99.90;;;;;;5024643;28;20223;-74
2021/07/09 01:16:02;;;;;;;1.95;1.08;;;19.80;99.90;;;;;;5025674;28;20226;-74
2021/07/09 01:18:30;;;;;;;1.20;1.10;;;19.70;99.90;;;;;;5045683;28;20219;-74
2021/07/09 01:20:57;;;;;;;0.82;0.82;;;19.70;99.90;;;;;;5050353;28;20227;-74
2021/07/09 01:23:28;;;;;;;1.23;0.90;;;19.70;99.90;;;;;;5045853;28;20237;-74
2021/07/09 01:25:57;;;;;;;1.08;0.93;;;19.70;99.90;;;;;;5051931;28;20646;-74
2021/07/09 01:28:24;;;;;;;1.63;0.90;;;19.70;99.90;;;;;;5052045;28;20283;-74
2021/07/09 01:30:51;;;;;;;1.20;1.00;;;19.60;99.90;;;;;;5048051;28;20645;-74
2021/07/09 01:33:18;;;;;;;1.10;0.70;;;19.60;99.90;;;;;;5042706;28;20268;-74
2021/07/09 01:35:45;;;;;;;1.20;0.88;;;19.60;99.90;;;;;;5039638;28;20819;-74
2021/07/09 01:38:13;;;;;;;1.10;1.00;;;19.50;99.90;;;;;;5047720;28;20268;-74
2021/07/09 01:40:40;;;;;;;1.30;1.02;;;19.50;99.90;;;;;;5048665;28;20219;-74
2021/07/09 01:43:09;;;;;;;2.97;1.08;;;19.50;99.90;;;;;;5055410;28;20275;-74
2021/07/09 01:45:37;;;;;;;1.85;0.90;;;19.50;99.90;;;;;;5047139;28;20514;-74
2021/07/09 01:48:05;;;;;;;0.80;0.70;;;19.50;99.90;;;;;;5052570;28;20363;-74
2021/07/09 01:50:33;;;;;;;0.80;0.80;;;19.50;99.90;;;;;;5054686;28;20830;-74
2021/07/09 01:53:00;;;;;;;2.50;0.90;;;19.50;99.90;;;;;;5068970;28;20214;-74
2021/07/09 01:55:27;;;;;;;0.70;0.70;;;19.50;99.90;;;;;;5048290;28;20287;-74
2021/07/09 01:57:55;;;;;;;1.02;0.90;;;19.60;99.90;;;;;;5049686;28;20700;-74
2021/07/09 02:00:25;;;;;;;1.77;0.85;;;19.50;99.90;;;;;;5051183;28;20292;-74
2021/07/09 02:02:52;;;;;;;0.80;0.80;;;19.50;99.90;;;;;;5049617;28;20695;-74
2021/07/09 02:05:21;;;;;;;0.80;0.80;;;19.50;99.90;;;;;;5057314;28;20273;-74
2021/07/09 02:07:51;;;;;;;2.05;1.00;;;19.50;99.90;;;;;;5054874;28;20273;-74
2021/07/09 02:10:20;;;;;;;0.73;0.73;;;19.50;99.90;;;;;;5044198;28;20223;-74
2021/07/09 02:12:50;;;;;;;1.10;0.82;;;19.50;99.90;;;;;;5053390;28;20541;-74
2021/07/09 02:15:17;;;;;;;1.45;0.82;;;19.40;99.90;;;;;;5054156;28;20224;-74
2021/07/09 02:17:46;;;;;;;0.93;0.90;;;19.40;99.90;;;;;;5052729;28;20221;-74
2021/07/09 02:20:17;;;;;;;0.88;0.88;;;19.50;99.90;;;;;;5051921;28;20217;-74
2021/07/09 02:22:45;;;;;;;0.85;0.80;;;19.40;99.90;;;;;;5048264;28;20288;-74
2021/07/09 02:25:14;;;;;;;0.80;0.80;;;19.40;99.90;;;;;;5051096;28;20636;-75
2021/07/09 02:27:42;;;;;;;3.08;1.08;;;19.40;99.90;;;;;;5048742;28;20214;-74
2021/07/09 02:30:12;;;;;;;1.88;1.10;;;19.40;99.90;;;;;;5045577;28;20217;-74
2021/07/09 02:32:39;;;;;;;1.35;1.25;;;19.40;99.90;;;;;;5046825;28;20230;-74
2021/07/09 02:35:10;;;;;;;1.23;1.00;;;19.40;99.90;;;;;;5047834;28;20227;-74
2021/07/09 02:37:38;;;;;;;1.00;0.90;;;19.40;99.90;;;;;;5048679;28;20305;-74
2021/07/09 02:40:05;;;;;;;0.93;0.82;;;19.40;99.90;;;;;;5047702;28;20253;-74
2021/07/09 02:42:32;;;;;;;0.93;0.80;;;19.30;99.90;;;;;;5064366;28;20222;-74
2021/07/09 02:45:00;;;;;;;1.85;0.85;;;19.20;99.90;;;;;;5058438;28;20222;-74
2021/07/09 02:47:27;;;;;;;0.82;0.82;;;18.90;99.90;;;;;;5050527;28;20299;-74
2021/07/09 02:49:54;;;;;;;1.08;0.98;;;18.80;99.90;;;;;;5054629;28;20234;-75
2021/07/09 02:52:22;;;;;;;1.10;1.00;;;18.80;99.90;;;;;;5052636;28;20677;-74
2021/07/09 02:54:49;;;;;;;1.70;0.98;;;18.90;99.90;;;;;;5052960;28;20226;-73
2021/07/09 02:57:16;;;;;;;0.80;0.80;;;19.00;99.90;;;;;;5050522;28;20219;-74
2021/07/09 02:59:43;;;;;;;1.23;1.00;;;19.10;99.90;;;;;;5049006;28;20709;-74
2021/07/09 03:02:10;;;;;;;0.98;0.70;;;19.20;99.90;;;;;;5044938;28;20276;-74
2021/07/09 03:04:37;;;;;;;0.80;0.80;;;19.20;99.90;;;;;;5049307;28;20222;-74
2021/07/09 03:07:04;;;;;;;1.75;0.90;;;19.20;99.90;;;;;;5045371;28;20271;-74
2021/07/09 03:09:33;;;;;;;1.02;1.02;;;19.20;99.90;;;;;;5045349;28;20272;-74
2021/07/09 03:12:00;;;;;;;1.05;0.95;;;19.20;99.90;;;;;;5053520;28;20718;-74
2021/07/09 03:14:27;;;;;;;2.05;1.00;;;18.80;99.90;;;;;;5052970;28;20725;-74
2021/07/09 03:16:54;;;;;;;2.22;1.00;;;18.50;99.90;;;;;;5051817;28;20312;-74
2021/07/09 03:19:21;;;;;;;2.55;1.00;;;18.40;99.90;;;;;;5049134;28;20222;-74
2021/07/09 03:21:48;;;;;;;1.02;0.93;;;18.50;99.90;;;;;;5045989;28;20231;-74
2021/07/09 03:24:15;;;;;;;0.73;0.73;;;18.60;99.90;;;;;;5047513;28;20238;-74
2021/07/09 03:26:43;;;;;;;1.42;1.05;;;18.50;99.90;;;;;;5050221;28;20260;-74
2021/07/09 03:29:10;;;;;;;1.70;0.85;;;18.50;99.90;;;;;;5049019;28;20272;-74
2021/07/09 03:31:37;;;;;;;0.90;0.90;;;18.30;99.90;;;;;;5040172;28;20231;-74
2021/07/09 03:34:05;;;;;;;0.77;0.77;;;18.10;99.90;;;;;;5061511;28;20219;-73
2021/07/09 03:36:32;;;;;;;1.00;0.75;;;17.80;99.90;;;;;;5045915;28;20292;-74
2021/07/09 03:39:00;;;;;;;0.88;0.80;;;17.80;99.90;;;;;;5049086;28;20688;-74
2021/07/09 03:41:27;;;;;;;1.40;0.82;;;17.80;99.90;;;;;;5040840;28;20317;-74
2021/07/09 03:43:56;;;;;;;0.90;0.90;;;17.80;99.90;;;;;;5042588;28;20303;-74
2021/07/09 03:46:23;;;;;;;1.27;0.90;;;17.90;99.90;;;;;;5050726;28;20215;-74
2021/07/09 03:48:50;;;;;;;0.70;0.70;;;18.10;99.90;;;;;;5048406;28;20223;-76
2021/07/09 03:51:17;;;;;;;2.50;0.90;;;18.10;99.90;;;;;;5049414;28;20287;-76
2021/07/09 03:53:44;;;;;;;1.33;0.88;;;18.20;99.90;;;;;;5042802;28;20617;-76
2021/07/09 03:56:11;;;;;;;1.58;0.70;;;18.40;99.90;;;;;;5056390;28;20276;-76
2021/07/09 03:58:40;;;;;;;0.80;0.70;;;18.40;99.90;;;;;;5051122;28;20375;-76
2021/07/09 04:01:08;;;;;;;1.67;0.80;;;18.40;99.90;;;;;;5044182;28;20234;-76
2021/07/09 04:03:35;;;;;;;0.88;0.80;;;18.30;99.90;;;;;;5043300;28;20288;-76
2021/07/09 04:06:02;;;;;;;0.70;0.70;;;18.20;99.90;;;;;;5048704;28;20229;-76
2021/07/09 04:08:29;;;;;;;1.17;0.70;;;18.10;99.90;;;;;;5045249;28;20280;-76
2021/07/09 04:10:56;;;;;;;0.93;0.88;;;18.00;99.90;;;;;;5050451;28;20229;-76
2021/07/09 04:13:23;;;;;;;0.70;0.70;;;17.80;99.90;;;;;;5046983;28;20226;-76
2021/07/09 04:15:50;;;;;;;0.82;0.70;;;17.70;99.90;;;;;;5050035;28;20219;-76
2021/07/09 04:18:18;;;;;;;0.80;0.80;;;17.90;99.90;;;;;;5041578;28;20223;-76
2021/07/09 04:20:45;;;;;;;0.60;0.60;;;18.00;99.90;;;;;;5049756;28;20226;-76
2021/07/09 04:23:12;;;;;;;1.27;0.80;;;18.20;99.90;;;;;;5062641;28;20237;-76
2021/07/09 04:25:39;;;;;;;0.85;0.80;;;18.30;99.90;;;;;;5051018;28;20250;-76
2021/07/09 04:28:07;;;;;;;0.70;0.70;;;18.40;99.90;;;;;;5056910;28;20230;-75
2021/07/09 04:30:34;;;;;;;0.60;0.60;;;18.50;99.90;;;;;;5041372;28;20276;-76
2021/07/09 04:33:01;;;;;;;0.77;0.77;;;18.60;99.90;;;;;;5045582;28;20226;-76
2021/07/09 04:35:29;;;;;;;0.90;0.90;;;18.60;99.90;;;;;;5043136;28;20223;-76
2021/07/09 04:37:56;;;;;;;0.70;0.70;;;18.70;99.90;;;;;;5046561;28;20707;-76
2021/07/09 04:40:23;;;;;;;0.80;0.80;;;18.70;99.90;;;;;;5047561;28;20238;-76
2021/07/09 04:42:50;;;;;;;1.88;0.80;;;18.70;99.90;;;;;;5048768;28;20271;-76
2021/07/09 04:45:17;;;;;;;0.68;0.68;;;18.80;99.90;;;;;;5042068;28;20783;-76
2021/07/09 04:47:45;;;;;;;0.65;0.65;;;18.50;99.90;;;;;;5044526;28;20223;-76
2021/07/09 04:50:12;;;;;;;0.70;0.70;;;18.50;99.90;;;;;;5045174;28;20218;-74
2021/07/09 04:52:40;;;;;;;0.68;0.68;;;18.50;99.90;;;;;;5045913;28;20227;-74
2021/07/09 04:55:08;;;;;;;1.02;0.73;;;18.50;99.90;;;;;;5051648;28;20225;-77
2021/07/09 04:57:35;;;;;;;0.75;0.70;;;18.30;99.90;;;;;;5042790;28;20227;-76
2021/07/09 05:00:03;;;;;;;0.60;0.60;;;18.20;99.90;;;;;;5048901;28;20264;-76
2021/07/09 05:02:30;;;;;;;0.85;0.68;;;18.10;99.90;;;;;;5042274;28;20222;-76
2021/07/09 05:04:57;;;;;;;0.82;0.63;;;18.10;99.90;;;;;;5043008;28;20219;-76
2021/07/09 05:07:24;;;;;;;0.70;0.70;;;18.20;99.90;;;;;;5042838;28;20308;-76
2021/07/09 05:09:52;;;;;;;0.80;0.80;;;18.20;99.90;;;;;;5043920;28;20797;-76
2021/07/09 05:12:19;;;;;;;0.60;0.60;;;18.10;99.90;;;;;;5045152;28;20705;-77
2021/07/09 05:14:47;;;;;;;0.77;0.77;;;18.00;99.90;;;;;;5062277;28;20324;-75
2021/07/09 05:17:14;;;;;;;0.60;0.60;;;18.00;99.90;;;;;;5045708;28;20296;-76
2021/07/09 05:19:41;;;;;;;2.33;0.77;;;17.90;99.90;;;;;;5045183;28;20225;-76
2021/07/09 05:22:10;;;;;;;0.70;0.70;;;18.00;99.90;;;;;;5047857;28;20284;-77
2021/07/09 05:24:37;;;;;;;0.95;0.82;;;18.10;99.90;;;;;;5045072;28;20231;-76
2021/07/09 05:27:05;;;;;;;0.80;0.80;;;18.30;99.90;;;;;;5042925;28;20230;-73
2021/07/09 05:29:32;;;;;;;2.70;0.80;;;18.40;99.90;;;;;;5045403;28;20230;-76
2021/07/09 05:31:59;;;;;;;0.98;0.98;;;18.40;99.90;;;;;;5045974;28;20745;-75
2021/07/09 05:34:26;;;;;;;0.77;0.65;;;18.40;99.90;;;;;;5051980;28;20636;-76
2021/07/09 05:36:53;;;;;;;0.82;0.82;;;18.50;99.90;;;;;;5044074;28;20231;-76
2021/07/09 05:39:20;;;;;;;1.00;0.90;;;18.70;99.90;;;;;;5048972;28;20222;-76
2021/07/09 05:41:48;;;;;;;0.80;0.80;;;18.70;99.90;;;;;;5047106;28;20652;-76
2021/07/09 05:44:16;;;;;;;1.10;0.70;;;18.70;99.90;;;;;;5048258;28;20223;-75
2021/07/09 05:46:43;;;;;;;0.80;0.80;;;18.80;99.90;;;;;;5045027;28;20626;-76
2021/07/09 05:49:10;;;;;;;0.80;0.80;;;18.90;99.90;;;;;;5040790;28;20624;-76
2021/07/09 05:51:37;;;;;;;2.22;0.98;;;18.90;99.90;;;;;;5043846;28;20296;-76
2021/07/09 05:54:04;;;;;;;0.80;0.80;;;18.90;99.90;;;;;;5046307;28;20226;-77
2021/07/09 05:56:31;;;;;;;1.08;0.98;;;19.10;99.90;;;;;;5034824;28;20302;-75
2021/07/09 05:58:58;;;;;;;0.98;0.98;;;19.30;99.90;;;;;;5035406;28;20226;-77
2021/07/09 06:01:27;;;;;;;1.42;1.10;;;19.50;99.90;;;;;;5041360;28;20226;-77
2021/07/09 06:03:54;;;;;;;1.70;0.77;;;19.60;99.90;;;;;;5036071;28;20281;-76
2021/07/09 06:06:21;;;;;;;1.50;1.00;;;19.60;99.90;;;;;;5051138;28;20625;-76
2021/07/09 06:08:48;;;;;;;0.82;0.80;;;19.70;99.90;;;;;;5040936;28;20289;-76
2021/07/09 06:11:15;;;;;;;1.73;0.80;;;19.80;99.90;;;;;;5036588;28;20242;-76
2021/07/09 06:13:42;;;;;;;1.08;0.80;;;19.80;99.90;;;;;;5036999;28;20223;-74
2021/07/09 06:16:09;;;;;;;0.80;0.80;;;20.00;99.90;;;;;;5035499;28;20216;-76
2021/07/09 06:18:38;;;;;;;0.70;0.70;;;20.00;99.90;;;;;;5041106;28;20471;-77
2021/07/09 06:21:05;;;;;;;0.85;0.82;;;20.00;99.90;;;;;;5037251;28;20603;-77
2021/07/09 06:23:32;;;;;;;0.80;0.80;;;20.10;99.90;;;;;;5041298;28;20287;-78
2021/07/09 06:25:59;;;;;;;4.07;0.80;;;20.20;99.90;;;;;;5027556;28;20615;-78
2021/07/09 06:28:26;;;;;;;1.23;1.13;;;20.30;99.90;;;;;;5042998;28;20306;-78
2021/07/09 06:30:53;;;;;;;2.05;0.70;;;20.40;99.90;;;;;;5039547;28;20268;-78
2021/07/09 06:33:20;;;;;;;2.35;0.75;;;20.60;99.90;;;;;;5046812;28;20632;-77
2021/07/09 06:35:48;;;;;;;2.22;1.08;;;20.60;99.90;;;;;;5047043;28;20226;-76
2021/07/09 06:38:15;;;;;;;1.52;0.80;;;20.50;99.90;;;;;;5041407;28;20223;-79
2021/07/09 06:40:45;;;;;;;1.48;0.70;;;20.50;99.90;;;;;;5045376;28;20230;-77
2021/07/09 06:43:13;;;;;;;2.38;1.00;;;20.60;99.90;;;;;;5044735;28;20723;-76
2021/07/09 06:45:44;;;;;;;0.80;0.80;;;20.50;99.90;;;;;;5044143;28;20238;-79
2021/07/09 06:48:12;;;;;;;1.10;1.00;;;20.50;99.90;;;;;;5038635;28;20222;-78
2021/07/09 06:50:40;;;;;;;1.27;1.00;;;20.50;99.90;;;;;;5043693;28;20222;-74
2021/07/09 06:53:08;;;;;;;2.40;1.15;;;20.60;99.90;;;;;;5037941;28;20671;-75
2021/07/09 06:55:36;;;;;;;2.35;1.30;;;20.70;99.90;;;;;;5043404;28;20226;-78
2021/07/09 06:58:03;;;;;;;7.75;1.40;;;21.00;99.90;;;;;;5054284;28;20380;-78
2021/07/09 07:00:33;;;;;;;1.40;1.00;;;21.00;99.90;;;;;;5042773;28;20238;-78
2021/07/09 07:03:00;;;;;;;1.55;1.10;;;20.80;99.90;;;;;;5040737;28;20348;-77
2021/07/09 07:05:27;;;;;;;1.55;1.00;;;20.60;99.90;;;;;;5042306;28;20227;-77
2021/07/09 07:07:54;;;;;;;1.58;1.08;;;20.60;99.90;;;;;;5040489;28;20234;-77
2021/07/09 07:10:23;;;;;;;1.63;1.00;;;20.60;99.90;;;;;;5041371;28;20751;-76
2021/07/09 07:12:50;;;;;;;1.85;1.30;;;20.70;99.90;;;;;;5042566;28;20227;-76
2021/07/09 07:15:17;;;;;;;1.25;1.10;;;20.80;99.90;;;;;;5042196;28;20247;-76
2021/07/09 07:17:44;;;;;;;1.40;1.30;;;20.80;99.90;;;;;;5042268;28;20730;-77
2021/07/09 07:20:12;;;;;;;1.85;1.20;;;20.90;99.90;;;;;;5038170;28;20223;-76
2021/07/09 07:22:39;;;;;;;1.48;1.10;;;21.00;99.90;;;;;;5040476;28;20230;-76
2021/07/09 07:25:07;;;;;;;1.10;1.00;;;21.20;99.90;;;;;;5037866;28;20222;-76
2021/07/09 07:27:35;;;;;;;0.95;0.95;;;21.30;99.90;;;;;;5040634;28;20717;-76
2021/07/09 07:30:03;;;;;;;1.20;1.02;;;21.50;99.90;;;;;;5039824;28;20235;-76
2021/07/09 07:32:30;;;;;;;2.17;1.20;;;21.60;99.90;;;;;;5039442;28;20216;-76
2021/07/09 07:34:57;;;;;;;2.38;1.20;;;21.60;99.90;;;;;;5039742;28;20739;-78
2021/07/09 07:37:25;;;;;;;2.35;1.20;;;21.70;99.90;;;;;;5040752;28;20242;-78
2021/07/09 07:39:52;;;;;;;4.35;1.23;;;21.60;99.90;;;;;;5041134;28;20230;-78
2021/07/09 07:42:19;;;;;;;1.33;1.10;;;21.60;99.90;;;;;;5041627;28;20603;-78
2021/07/09 07:44:48;;;;;;;1.15;1.05;;;21.60;99.90;;;;;;5042998;28;20222;-77
2021/07/09 07:47:17;;;;;;;0.82;0.82;;;21.50;99.90;;;;;;5038177;28;20241;-78
2021/07/09 07:49:44;;;;;;;1.73;1.13;;;21.50;99.90;;;;;;5048041;28;20222;-78
2021/07/09 07:52:11;;;;;;;2.20;1.40;;;21.60;99.90;;;;;;5040906;28;20500;-80
2021/07/09 07:54:38;;;;;;;0.80;0.80;;;22.00;99.90;;;;;;5042061;28;20226;-79
2021/07/09 07:57:05;;;;;;;1.67;1.02;;;22.40;99.90;;;;;;5036998;28;20226;-80
2021/07/09 07:59:32;;;;;;;3.05;1.10;;;22.50;99.90;;;;;;5044861;28;20227;-80
2021/07/09 08:02:00;;;;;;;0.85;0.85;;;22.60;99.90;;;;;;5042869;28;20273;-79
2021/07/09 08:04:28;;;;;;;4.35;1.20;;;22.80;99.90;;;;;;5038401;28;20217;-79
2021/07/09 08:06:55;;;;;;;1.33;1.00;;;23.10;99.90;;;;;;5039987;28;20229;-77
2021/07/09 08:09:22;;;;;;;0.80;0.80;;;23.10;99.90;;;;;;5041635;28;20885;-79
2021/07/09 08:11:50;;;;;;;2.13;0.95;;;23.10;99.90;;;;;;5046289;28;20276;-79
2021/07/09 08:14:17;;;;;;;2.35;1.27;;;23.10;99.90;;;;;;5036413;28;20221;-79
2021/07/09 08:16:48;;;;;;;0.98;0.98;;;23.10;99.90;;;;;;5036144;28;20214;-79
2021/07/09 08:19:16;;;;;;;1.17;1.05;;;23.10;99.90;;;;;;5034684;28;20400;-80
2021/07/09 08:21:46;;;;;;;2.03;1.17;;;23.20;99.90;;;;;;5039122;28;20405;-79
2021/07/09 08:24:13;;;;;;;1.77;0.88;;;23.30;99.90;;;;;;5035423;28;20593;-79
2021/07/09 08:26:40;;;;;;;1.67;1.00;;;23.40;99.90;;;;;;5038759;28;20272;-79
2021/07/09 08:29:07;;;;;;;1.92;1.10;;;23.40;99.90;;;;;;5036031;28;20227;-79
2021/07/09 08:31:34;;;;;;;1.30;1.10;;;23.20;99.90;;;;;;5035391;28;20222;-79
2021/07/09 08:34:01;;;;;;;1.00;0.90;;;23.10;99.90;;;;;;5037662;28;20223;-78
2021/07/09 08:36:30;;;;;;;1.02;0.90;;;23.00;99.90;;;;;;5040419;28;20305;-80
2021/07/09 08:38:58;;;;;;;1.63;1.00;;;23.10;99.90;;;;;;5038307;28;20226;-78
2021/07/09 08:41:25;;;;;;;1.52;1.10;;;23.00;99.90;;;;;;5039329;28;20242;-79
2021/07/09 08:43:52;;;;;;;1.00;0.90;;;23.10;99.90;;;;;;5037811;28;20214;-77
2021/07/09 08:46:20;;;;;;;2.72;0.95;;;23.10;99.90;;;;;;5037986;28;20223;-78
2021/07/09 08:48:48;;;;;;;1.13;1.02;;;23.30;99.90;;;;;;5035288;28;20228;-78
2021/07/09 08:51:16;;;;;;;1.30;0.65;;;23.50;99.90;;;;;;5040910;28;20222;-78
2021/07/09 08:53:44;;;;;;;1.25;0.98;;;23.70;99.90;;;;;;5036771;28;20760;-78
2021/07/09 08:56:11;;;;;;;1.33;0.80;;;24.00;99.90;;;;;;5038979;28;20214;-74
2021/07/09 08:58:39;;;;;;;1.20;0.63;;;24.10;99.90;;;;;;5040286;28;20320;-73
2021/07/09 09:01:07;;;;;;;0.70;0.70;;;24.40;99.90;;;;;;5045502;28;20336;-75
2021/07/09 09:03:34;;;;;;;1.63;0.80;;;24.50;99.90;;;;;;5041837;28;20233;-76
2021/07/09 09:06:01;;;;;;;1.35;0.77;;;24.50;99.90;;;;;;5039213;28;20662;-73
2021/07/09 09:08:30;;;;;;;1.58;0.80;;;24.50;99.90;;;;;;5039944;28;20226;-79
2021/07/09 09:10:59;;;;;;;1.20;0.80;;;24.50;99.90;;;;;;5042753;28;20638;-77
2021/07/09 09:13:28;;;;;;;1.65;1.00;;;24.50;99.90;;;;;;5035067;28;20230;-77
2021/07/09 09:16:02;;;;;;;0.93;0.80;;;24.70;99.90;;;;;;5041198;28;20279;-77
2021/07/09 09:18:31;;;;;;;1.02;0.85;;;24.70;99.90;;;;;;5038371;28;20658;-78
2021/07/09 09:21:00;;;;;;;1.60;1.00;;;24.90;99.90;;;;;;5041374;28;20321;-79
2021/07/09 09:23:29;;;;;;;1.48;0.90;;;25.30;99.90;;;;;;5036027;28;20226;-80
2021/07/09 09:25:57;;;;;;;1.30;0.93;;;25.70;99.90;;;;;;5041455;28;20230;-79
2021/07/09 09:28:25;;;;;;;0.82;0.80;;;25.70;99.90;;;;;;5033731;28;20235;-78
2021/07/09 09:30:55;;;;;;;0.80;0.80;;;25.60;99.90;;;;;;5040350;28;20288;-79
2021/07/09 09:33:23;;;;;;;2.17;0.77;;;25.50;99.90;;;;;;5041573;28;20269;-79
2021/07/09 09:35:55;;;;;;;2.72;0.70;;;25.60;99.90;;;;;;5037667;28;20909;-78
2021/07/09 09:38:27;;;;;;;0.80;0.63;;;25.60;99.90;;;;;;5035481;28;20295;-77
2021/07/09 09:40:54;;;;;;;0.60;0.60;;;25.60;99.90;;;;;;5041456;28;20238;-79
2021/07/09 09:43:25;;;;;;;0.68;0.60;;;25.70;99.90;;;;;;5039379;28;20225;-79
2021/07/09 09:45:59;;;;;;;1.20;0.80;;;25.60;99.90;;;;;;5038950;28;20707;-80
2021/07/09 09:48:36;;;;;;;0.80;0.65;;;25.60;99.90;;;;;;5035872;28;20268;-80
2021/07/09 09:51:03;;;;;;;0.73;0.68;;;25.60;99.90;;;;;;5037997;28;20268;-79
2021/07/09 09:53:33;;;;;;;1.60;0.77;;;25.80;99.90;;;;;;5038889;28;20300;-80
2021/07/09 09:56:06;;;;;;;0.82;0.82;;;25.80;99.90;;;;;;5038513;28;20214;-79
2021/07/09 09:58:35;;;;;;;1.08;0.70;;;25.80;99.90;;;;;;5042062;28;20761;-79
2021/07/09 10:01:04;;;;;;;1.63;0.52;;;25.90;99.90;;;;;;5037759;28;20253;-79
2021/07/09 10:03:31;;;;;;;0.80;0.70;;;26.20;99.90;;;;;;5040927;28;20215;-79
2021/07/09 10:06:01;;;;;;;1.27;0.80;;;26.30;99.90;;;;;;5044477;28;20235;-78
2021/07/09 10:08:29;;;;;;;2.58;0.68;;;26.60;99.90;;;;;;5043614;28;20242;-79
2021/07/09 10:10:57;;;;;;;0.50;0.50;;;26.90;99.90;;;;;;5042400;28;20238;-79
2021/07/09 10:13:28;;;;;;;0.50;0.50;;;27.00;99.90;;;;;;5043517;28;20568;-79
2021/07/09 10:15:56;;;;;;;0.60;0.60;;;27.00;99.90;;;;;;5039570;28;20581;-80
2021/07/09 10:18:24;;;;;;;0.60;0.60;;;27.00;99.90;;;;;;5040588;28;20237;-79
2021/07/09 10:20:51;;;;;;;0.60;0.60;;;27.00;99.90;;;;;;5049273;28;20230;-79
2021/07/09 10:23:21;;;;;;;0.57;0.57;;;26.90;99.90;;;;;;5040860;28;20219;-79
2021/07/09 10:25:49;;;;;;;0.50;0.50;;;26.80;99.90;;;;;;5044425;28;20226;-78
2021/07/09 10:28:20;;;;;;;2.30;0.70;;;26.80;99.90;;;;;;5042587;28;20268;-79
2021/07/09 10:30:47;;;;;;;1.23;0.70;;;27.00;99.90;;;;;;5042989;28;20790;-78
2021/07/09 10:33:33;;;;;;;1.15;0.60;;;27.00;99.90;;;;;;5042494;28;20723;-78
2021/07/09 10:36:05;;;;;;;0.73;0.47;;;27.00;99.90;;;;;;5042544;28;20218;-78
2021/07/09 10:38:39;;;;;;;1.00;0.40;;;27.20;99.90;;;;;;5037971;28;20222;-78
2021/07/09 10:41:16;;;;;;;0.50;0.50;;;27.20;99.90;;;;;;5045406;28;20228;-77
2021/07/09 10:43:43;;;;;;;0.75;0.57;;;27.40;99.90;;;;;;5039716;28;20703;-77
2021/07/09 10:46:10;;;;;;;0.40;0.40;;;27.40;99.90;;;;;;5038983;28;20440;-77
2021/07/09 10:48:39;;;;;;;0.52;0.47;;;27.50;99.90;;;;;;5044168;28;20229;-77
2021/07/09 10:51:06;;;;;;;0.40;0.40;;;27.50;99.90;;;;;;5048652;28;20218;-78
2021/07/09 10:53:34;;;;;;;1.25;0.70;;;27.40;99.90;;;;;;5041123;28;20214;-78
2021/07/09 10:56:04;;;;;;;0.40;0.40;;;27.50;99.90;;;;;;5037250;28;20226;-78
2021/07/09 10:58:40;;;;;;;0.40;0.40;;;27.60;99.90;;;;;;5031907;28;20222;-78
2021/07/09 11:01:18;;;;;;;0.40;0.40;;;27.60;99.90;;;;;;5036291;28;20703;-77
2021/07/09 11:03:49;;;;;;;0.40;0.40;;;27.80;99.90;;;;;;5040494;28;20231;-78
2021/07/09 11:06:19;;;;;;;0.47;0.47;;;27.80;99.90;;;;;;5038754;28;20254;-77
2021/07/09 11:09:03;;;;;;;0.40;0.40;;;27.90;99.90;;;;;;5039890;28;20314;-77
2021/07/09 11:11:47;;;;;;;0.45;0.40;;;27.90;99.90;;;;;;5043668;28;20223;-77
2021/07/09 11:14:16;;;;;;;0.43;0.40;;;27.90;99.90;;;;;;5039454;28;20241;-77
2021/07/09 11:16:44;;;;;;;0.50;0.50;;;27.90;99.90;;;;;;5043103;28;20223;-78
2021/07/09 11:19:18;;;;;;;0.40;0.40;;;27.90;99.90;;;;;;5042120;28;20225;-78
2021/07/09 11:21:53;;;;;;;0.95;0.52;;;28.00;99.90;;;;;;5042766;28;20233;-78
2021/07/09 11:24:22;;;;;;;1.55;0.40;;;28.10;99.90;;;;;;5045813;28;20225;-77
2021/07/09 11:26:50;;;;;;;0.40;0.40;;;28.20;99.90;;;;;;5037991;28;20367;-77
2021/07/09 11:29:28;;;;;;;0.60;0.40;;;28.40;99.90;;;;;;5041534;28;20839;-77
2021/07/09 11:31:57;;;;;;;0.40;0.40;;;28.60;99.90;;;;;;5041302;28;20230;-77
2021/07/09 11:34:27;;;;;;;1.55;0.45;;;28.60;99.90;;;;;;5039329;28;20234;-78
2021/07/09 11:36:56;;;;;;;0.63;0.50;;;28.50;99.90;;;;;;5042352;28;20231;-78
2021/07/09 11:39:26;;;;;;;0.30;0.30;;;28.60;99.90;;;;;;5038201;28;20275;-79
2021/07/09 11:42:05;;;;;;;0.57;0.47;;;28.50;99.90;;;;;;5041946;28;20226;-79
2021/07/09 11:44:34;;;;;;;0.40;0.38;;;28.50;99.90;;;;;;5040015;28;20223;-76
2021/07/09 11:47:04;;;;;;;0.85;0.40;;;28.60;99.90;;;;;;5042412;28;20793;-76
2021/07/09 11:49:34;;;;;;;0.40;0.40;;;28.80;99.90;;;;;;5040672;28;20223;-77
2021/07/09 11:52:04;;;;;;;0.50;0.50;;;29.00;99.90;;;;;;5042079;28;20218;-78
2021/07/09 11:54:34;;;;;;;0.30;0.30;;;29.00;99.90;;;;;;5033858;28;20267;-76
2021/07/09 11:57:05;;;;;;;0.77;0.45;;;28.90;99.90;;;;;;5040331;28;20244;-77
2021/07/09 11:59:32;;;;;;;0.32;0.32;;;28.80;99.90;;;;;;5031547;28;20599;-77
2021/07/09 12:02:10;;;;;;;0.50;0.50;;;28.70;99.90;;;;;;5041649;28;20237;-75
2021/07/09 12:04:40;;;;;;;0.40;0.40;;;28.80;99.90;;;;;;5034985;28;20390;-77
2021/07/09 12:07:31;;;;;;;0.75;0.40;;;28.90;99.90;;;;;;5036453;28;20223;-77
2021/07/09 12:10:04;;;;;;;0.68;0.30;;;28.90;99.90;;;;;;5040039;28;20218;-77
2021/07/09 12:12:34;;;;;;;0.30;0.30;;;29.00;99.90;;;;;;5041680;28;20298;-76
2021/07/09 12:15:11;;;;;;;0.40;0.40;;;28.90;99.90;;;;;;5033847;28;20313;-77
2021/07/09 12:17:40;;;;;;;1.38;0.30;;;28.90;99.90;;;;;;5036401;28;20572;-77
2021/07/09 12:20:15;;;;;;;0.30;0.30;;;28.90;99.90;;;;;;5042747;28;20219;-75
2021/07/09 12:22:44;;;;;;;0.43;0.30;;;29.20;99.90;;;;;;5043156;28;20434;-78
2021/07/09 12:25:14;;;;;;;0.30;0.30;;;29.20;99.90;;;;;;5038184;28;20252;-76
2021/07/09 12:27:42;;;;;;;0.30;0.30;;;29.40;99.90;;;;;;5036008;28;20305;-78
2021/07/09 12:30:13;;;;;;;0.55;0.30;;;29.60;99.90;;;;;;5039311;28;20226;-77
2021/07/09 12:32:47;;;;;;;1.27;0.30;;;29.50;99.90;;;;;;5041519;28;20271;-77
2021/07/09 12:35:17;;;;;;;0.30;0.30;;;29.50;99.90;;;;;;5052491;28;20210;-77
2021/07/09 12:37:55;;;;;;;0.30;0.30;;;29.50;99.90;;;;;;5036315;28;20626;-76
2021/07/09 12:40:23;;;;;;;0.57;0.35;;;29.60;99.90;;;;;;5037962;28;20224;-78
2021/07/09 12:42:50;;;;;;;0.30;0.30;;;29.60;99.90;;;;;;5038498;28;20227;-76
2021/07/09 12:45:17;;;;;;;0.57;0.30;;;29.90;99.90;;;;;;5043312;28;20309;-76
2021/07/09 12:47:53;;;;;;;0.20;0.20;;;29.80;99.60;;;;;;5038178;28;20318;-76
2021/07/09 12:50:25;;;;;;;0.98;0.30;;;29.80;99.90;;;;;;5042391;28;20222;-77
2021/07/09 12:52:52;;;;;;;0.32;0.30;;;30.00;99.90;;;;;;5040892;28;20242;-78
2021/07/09 12:55:42;;;;;;;0.20;0.20;;;30.20;99.90;;;;;;5040905;28;20222;-78